Terminal Aerodrome Forecast
Issued by NWS

Home | Current Version | Previous Version | Graphics & Text | Print | Product List | Glossary On
Versions: 1 2 3 4 5 6 7 8 9 10 11 12 13 14 15 16 17 18
187
FTUS42 KMHX 221740
TAFOAJ
TAF
KOAJ 221740Z 2218/2318 VRB05KT P6SM BKN005
     FM222200 VRB05KT P6SM SCT007 OVC010
     FM230100 12007KT 4SM SHRA VCTS SCT007CB OVC010
     FM230700 15009KT P6SM SCT007 BKN010
     FM231000 20007KT P6SM SCT015 SCT100
     FM231600 21007KT P6SM VCSH SCT025 BKN040
      AMD LTD TO CLD VIS AND WIND=

USA.gov is the U.S. government's official web portal to all federal, state and local government web resources and services.